sensor_id;sensor_type;location;lat;lon;timestamp;P1;durP1;ratioP1;P2;durP2;ratioP2
11431;SDS011;5772;50.940;6.782;2023-11-22T00:01:54;34.13;;;31.87;;
11431;SDS011;5772;50.940;6.782;2023-11-22T00:04:20;32.50;;;30.30;;
11431;SDS011;5772;50.940;6.782;2023-11-22T00:06:45;36.03;;;33.63;;
11431;SDS011;5772;50.940;6.782;2023-11-22T00:09:10;32.83;;;30.63;;
11431;SDS011;5772;50.940;6.782;2023-11-22T00:11:37;34.57;;;32.30;;
11431;SDS011;5772;50.940;6.782;2023-11-22T00:14:03;34.50;;;31.97;;
11431;SDS011;5772;50.940;6.782;2023-11-22T00:16:28;34.57;;;32.33;;
11431;SDS011;5772;50.940;6.782;2023-11-22T00:18:54;34.23;;;32.03;;
11431;SDS011;5772;50.940;6.782;2023-11-22T00:21:19;33.93;;;31.80;;
11431;SDS011;5772;50.940;6.782;2023-11-22T00:23:44;38.47;;;35.90;;
11431;SDS011;5772;50.940;6.782;2023-11-22T00:26:10;33.97;;;31.67;;
11431;SDS011;5772;50.940;6.782;2023-11-22T00:28:36;35.83;;;33.50;;
11431;SDS011;5772;50.940;6.782;2023-11-22T00:31:02;37.37;;;35.07;;
11431;SDS011;5772;50.940;6.782;2023-11-22T00:33:30;36.50;;;34.00;;
11431;SDS011;5772;50.940;6.782;2023-11-22T00:35:55;34.57;;;32.17;;
11431;SDS011;5772;50.940;6.782;2023-11-22T00:38:21;34.77;;;32.27;;
11431;SDS011;5772;50.940;6.782;2023-11-22T00:40:46;34.60;;;32.20;;
11431;SDS011;5772;50.940;6.782;2023-11-22T00:43:11;35.70;;;33.50;;
11431;SDS011;5772;50.940;6.782;2023-11-22T00:45:38;34.00;;;31.47;;
11431;SDS011;5772;50.940;6.782;2023-11-22T00:48:03;32.30;;;30.27;;
11431;SDS011;5772;50.940;6.782;2023-11-22T00:50:29;37.40;;;34.83;;
11431;SDS011;5772;50.940;6.782;2023-11-22T00:52:54;31.93;;;29.73;;
11431;SDS011;5772;50.940;6.782;2023-11-22T00:55:20;34.17;;;31.73;;
11431;SDS011;5772;50.940;6.782;2023-11-22T00:57:45;34.23;;;31.93;;
11431;SDS011;5772;50.940;6.782;2023-11-22T01:00:10;36.37;;;33.47;;
11431;SDS011;5772;50.940;6.782;2023-11-22T01:02:37;33.50;;;31.50;;
11431;SDS011;5772;50.940;6.782;2023-11-22T01:05:03;33.60;;;31.30;;
11431;SDS011;5772;50.940;6.782;2023-11-22T01:07:30;39.47;;;37.07;;
11431;SDS011;5772;50.940;6.782;2023-11-22T01:09:55;34.70;;;32.63;;
11431;SDS011;5772;50.940;6.782;2023-11-22T01:12:20;32.33;;;30.13;;
11431;SDS011;5772;50.940;6.782;2023-11-22T01:14:46;34.07;;;31.70;;
11431;SDS011;5772;50.940;6.782;2023-11-22T01:17:11;38.80;;;36.00;;
11431;SDS011;5772;50.940;6.782;2023-11-22T01:19:38;34.90;;;32.27;;
11431;SDS011;5772;50.940;6.782;2023-11-22T01:22:03;35.53;;;33.13;;
11431;SDS011;5772;50.940;6.782;2023-11-22T01:24:29;38.40;;;36.00;;
11431;SDS011;5772;50.940;6.782;2023-11-22T01:26:54;37.63;;;35.23;;
11431;SDS011;5772;50.940;6.782;2023-11-22T01:29:19;35.83;;;33.43;;
11431;SDS011;5772;50.940;6.782;2023-11-22T01:31:45;37.70;;;35.23;;
11431;SDS011;5772;50.940;6.782;2023-11-22T01:34:10;38.87;;;36.47;;
11431;SDS011;5772;50.940;6.782;2023-11-22T01:36:37;35.93;;;33.57;;
11431;SDS011;5772;50.940;6.782;2023-11-22T01:39:06;35.83;;;33.40;;
11431;SDS011;5772;50.940;6.782;2023-11-22T01:41:32;36.77;;;34.33;;
11431;SDS011;5772;50.940;6.782;2023-11-22T01:43:57;40.53;;;37.70;;
11431;SDS011;5772;50.940;6.782;2023-11-22T01:46:23;38.63;;;35.83;;
11431;SDS011;5772;50.940;6.782;2023-11-22T01:48:49;40.20;;;37.80;;
11431;SDS011;5772;50.940;6.782;2023-11-22T01:51:15;37.47;;;35.07;;
11431;SDS011;5772;50.940;6.782;2023-11-22T01:53:42;41.70;;;38.83;;
11431;SDS011;5772;50.940;6.782;2023-11-22T01:56:07;40.90;;;37.93;;
11431;SDS011;5772;50.940;6.782;2023-11-22T01:58:33;39.60;;;36.87;;
11431;SDS011;5772;50.940;6.782;2023-11-22T02:00:58;35.83;;;33.63;;
11431;SDS011;5772;50.940;6.782;2023-11-22T02:03:24;39.13;;;36.40;;
11431;SDS011;5772;50.940;6.782;2023-11-22T02:05:49;37.83;;;35.50;;
11431;SDS011;5772;50.940;6.782;2023-11-22T02:08:15;39.13;;;36.67;;
11431;SDS011;5772;50.940;6.782;2023-11-22T02:10:42;37.60;;;35.43;;
11431;SDS011;5772;50.940;6.782;2023-11-22T02:13:07;35.17;;;32.73;;
11431;SDS011;5772;50.940;6.782;2023-11-22T02:15:33;39.20;;;36.70;;
11431;SDS011;5772;50.940;6.782;2023-11-22T02:17:58;36.20;;;33.83;;
11431;SDS011;5772;50.940;6.782;2023-11-22T02:20:24;37.07;;;34.03;;
11431;SDS011;5772;50.940;6.782;2023-11-22T02:22:49;38.03;;;35.50;;
11431;SDS011;5772;50.940;6.782;2023-11-22T02:25:16;34.67;;;32.43;;
11431;SDS011;5772;50.940;6.782;2023-11-22T02:27:41;31.70;;;29.70;;
11431;SDS011;5772;50.940;6.782;2023-11-22T02:30:07;29.93;;;27.93;;
11431;SDS011;5772;50.940;6.782;2023-11-22T02:32:33;34.37;;;32.13;;
11431;SDS011;5772;50.940;6.782;2023-11-22T02:34:58;32.97;;;31.13;;
11431;SDS011;5772;50.940;6.782;2023-11-22T02:37:23;29.33;;;27.60;;
11431;SDS011;5772;50.940;6.782;2023-11-22T02:40:02;29.67;;;27.87;;
11431;SDS011;5772;50.940;6.782;2023-11-22T02:42:31;32.97;;;30.60;;
11431;SDS011;5772;50.940;6.782;2023-11-22T02:44:57;31.67;;;29.40;;
11431;SDS011;5772;50.940;6.782;2023-11-22T02:47:23;30.07;;;27.90;;
11431;SDS011;5772;50.940;6.782;2023-11-22T02:49:48;29.53;;;27.63;;
11431;SDS011;5772;50.940;6.782;2023-11-22T02:52:13;30.13;;;28.30;;
11431;SDS011;5772;50.940;6.782;2023-11-22T02:54:40;29.17;;;27.20;;
11431;SDS011;5772;50.940;6.782;2023-11-22T02:57:06;28.57;;;26.87;;
11431;SDS011;5772;50.940;6.782;2023-11-22T02:59:32;28.33;;;26.43;;
11431;SDS011;5772;50.940;6.782;2023-11-22T03:01:58;29.00;;;27.00;;
11431;SDS011;5772;50.940;6.782;2023-11-22T03:04:23;30.10;;;28.20;;
11431;SDS011;5772;50.940;6.782;2023-11-22T03:06:48;28.70;;;26.80;;
11431;SDS011;5772;50.940;6.782;2023-11-22T03:09:14;31.33;;;29.13;;
11431;SDS011;5772;50.940;6.782;2023-11-22T03:11:39;28.87;;;26.77;;
11431;SDS011;5772;50.940;6.782;2023-11-22T03:14:04;31.73;;;29.73;;
11431;SDS011;5772;50.940;6.782;2023-11-22T03:16:31;34.13;;;32.00;;
11431;SDS011;5772;50.940;6.782;2023-11-22T03:18:56;32.50;;;30.23;;
11431;SDS011;5772;50.940;6.782;2023-11-22T03:21:22;32.80;;;30.40;;
11431;SDS011;5772;50.940;6.782;2023-11-22T03:23:47;33.13;;;30.63;;
11431;SDS011;5772;50.940;6.782;2023-11-22T03:26:12;32.23;;;30.13;;
11431;SDS011;5772;50.940;6.782;2023-11-22T03:28:38;32.40;;;30.10;;
11431;SDS011;5772;50.940;6.782;2023-11-22T03:31:03;30.10;;;28.20;;
11431;SDS011;5772;50.940;6.782;2023-11-22T03:33:30;33.40;;;31.13;;
11431;SDS011;5772;50.940;6.782;2023-11-22T03:35:55;31.87;;;29.77;;
11431;SDS011;5772;50.940;6.782;2023-11-22T03:38:21;31.13;;;29.23;;
11431;SDS011;5772;50.940;6.782;2023-11-22T03:40:46;31.67;;;29.47;;
11431;SDS011;5772;50.940;6.782;2023-11-22T03:43:11;32.87;;;30.57;;
11431;SDS011;5772;50.940;6.782;2023-11-22T03:45:37;31.00;;;29.07;;
11431;SDS011;5772;50.940;6.782;2023-11-22T03:48:02;31.70;;;29.23;;
11431;SDS011;5772;50.940;6.782;2023-11-22T03:50:29;31.33;;;29.27;;
11431;SDS011;5772;50.940;6.782;2023-11-22T03:52:54;33.97;;;31.63;;
11431;SDS011;5772;50.940;6.782;2023-11-22T03:55:20;32.87;;;30.57;;
11431;SDS011;5772;50.940;6.782;2023-11-22T03:57:45;33.37;;;30.63;;
11431;SDS011;5772;50.940;6.782;2023-11-22T04:00:11;32.17;;;29.67;;
11431;SDS011;5772;50.940;6.782;2023-11-22T04:02:37;32.33;;;29.83;;
11431;SDS011;5772;50.940;6.782;2023-11-22T04:05:02;31.03;;;28.83;;
11431;SDS011;5772;50.940;6.782;2023-11-22T04:07:30;33.63;;;31.10;;
11431;SDS011;5772;50.940;6.782;2023-11-22T04:09:55;31.00;;;28.80;;
11431;SDS011;5772;50.940;6.782;2023-11-22T04:12:20;32.17;;;29.90;;
11431;SDS011;5772;50.940;6.782;2023-11-22T04:14:46;35.90;;;33.17;;
11431;SDS011;5772;50.940;6.782;2023-11-22T04:17:11;34.00;;;31.80;;
11431;SDS011;5772;50.940;6.782;2023-11-22T04:19:37;36.33;;;34.00;;
11431;SDS011;5772;50.940;6.782;2023-11-22T04:22:02;36.13;;;33.70;;
11431;SDS011;5772;50.940;6.782;2023-11-22T04:24:29;35.67;;;33.23;;
11431;SDS011;5772;50.940;6.782;2023-11-22T04:26:54;37.50;;;35.00;;
11431;SDS011;5772;50.940;6.782;2023-11-22T04:29:20;39.27;;;36.93;;
11431;SDS011;5772;50.940;6.782;2023-11-22T04:31:45;38.33;;;35.67;;
11431;SDS011;5772;50.940;6.782;2023-11-22T04:34:10;39.73;;;37.20;;
11431;SDS011;5772;50.940;6.782;2023-11-22T04:36:36;41.03;;;38.17;;
11431;SDS011;5772;50.940;6.782;2023-11-22T04:39:01;39.23;;;36.93;;
11431;SDS011;5772;50.940;6.782;2023-11-22T04:41:28;38.37;;;35.57;;
11431;SDS011;5772;50.940;6.782;2023-11-22T04:43:53;35.67;;;33.43;;
11431;SDS011;5772;50.940;6.782;2023-11-22T04:46:18;34.43;;;32.17;;
11431;SDS011;5772;50.940;6.782;2023-11-22T04:48:44;37.97;;;35.17;;
11431;SDS011;5772;50.940;6.782;2023-11-22T04:51:09;34.17;;;31.73;;
11431;SDS011;5772;50.940;6.782;2023-11-22T04:53:35;36.67;;;34.27;;
11431;SDS011;5772;50.940;6.782;2023-11-22T04:56:00;38.17;;;35.57;;
11431;SDS011;5772;50.940;6.782;2023-11-22T04:58:27;37.53;;;35.03;;
11431;SDS011;5772;50.940;6.782;2023-11-22T05:00:52;38.47;;;35.90;;
11431;SDS011;5772;50.940;6.782;2023-11-22T05:03:17;39.87;;;37.17;;
11431;SDS011;5772;50.940;6.782;2023-11-22T05:05:43;37.17;;;34.60;;
11431;SDS011;5772;50.940;6.782;2023-11-22T05:08:08;43.27;;;40.33;;
11431;SDS011;5772;50.940;6.782;2023-11-22T05:10:33;45.10;;;41.53;;
11431;SDS011;5772;50.940;6.782;2023-11-22T05:12:59;46.57;;;43.50;;
11431;SDS011;5772;50.940;6.782;2023-11-22T05:15:25;45.10;;;41.90;;
11431;SDS011;5772;50.940;6.782;2023-11-22T05:17:51;48.80;;;45.63;;
11431;SDS011;5772;50.940;6.782;2023-11-22T05:20:16;47.70;;;44.40;;
11431;SDS011;5772;50.940;6.782;2023-11-22T05:22:42;43.47;;;40.37;;
11431;SDS011;5772;50.940;6.782;2023-11-22T05:25:07;51.43;;;48.43;;
11431;SDS011;5772;50.940;6.782;2023-11-22T05:27:33;47.90;;;44.67;;
11431;SDS011;5772;50.940;6.782;2023-11-22T05:29:58;54.20;;;50.60;;
11431;SDS011;5772;50.940;6.782;2023-11-22T05:32:25;52.20;;;48.97;;
11431;SDS011;5772;50.940;6.782;2023-11-22T05:34:50;55.43;;;52.23;;
11431;SDS011;5772;50.940;6.782;2023-11-22T05:37:16;54.93;;;51.17;;
11431;SDS011;5772;50.940;6.782;2023-11-22T05:39:41;48.03;;;44.90;;
11431;SDS011;5772;50.940;6.782;2023-11-22T05:42:06;55.13;;;51.63;;
11431;SDS011;5772;50.940;6.782;2023-11-22T05:44:32;54.30;;;50.83;;
11431;SDS011;5772;50.940;6.782;2023-11-22T05:46:57;56.80;;;53.63;;
11431;SDS011;5772;50.940;6.782;2023-11-22T05:49:24;56.10;;;52.40;;
11431;SDS011;5772;50.940;6.782;2023-11-22T05:51:49;54.20;;;50.63;;
11431;SDS011;5772;50.940;6.782;2023-11-22T05:54:14;54.67;;;51.10;;
11431;SDS011;5772;50.940;6.782;2023-11-22T05:56:40;54.90;;;51.67;;
11431;SDS011;5772;50.940;6.782;2023-11-22T05:59:05;50.37;;;46.93;;
11431;SDS011;5772;50.940;6.782;2023-11-22T06:01:31;51.43;;;47.90;;
11431;SDS011;5772;50.940;6.782;2023-11-22T06:03:56;56.17;;;52.80;;
11431;SDS011;5772;50.940;6.782;2023-11-22T06:06:23;61.40;;;57.43;;
11431;SDS011;5772;50.940;6.782;2023-11-22T06:08:48;57.03;;;53.30;;
11431;SDS011;5772;50.940;6.782;2023-11-22T06:11:13;55.30;;;51.40;;
11431;SDS011;5772;50.940;6.782;2023-11-22T06:13:39;56.80;;;53.00;;
11431;SDS011;5772;50.940;6.782;2023-11-22T06:16:04;53.53;;;50.10;;
11431;SDS011;5772;50.940;6.782;2023-11-22T06:18:30;55.33;;;51.87;;
11431;SDS011;5772;50.940;6.782;2023-11-22T06:20:55;49.73;;;46.53;;
11431;SDS011;5772;50.940;6.782;2023-11-22T06:23:22;52.90;;;49.67;;
11431;SDS011;5772;50.940;6.782;2023-11-22T06:25:47;53.17;;;49.60;;
11431;SDS011;5772;50.940;6.782;2023-11-22T06:28:12;53.27;;;50.00;;
11431;SDS011;5772;50.940;6.782;2023-11-22T06:30:38;52.83;;;49.17;;
11431;SDS011;5772;50.940;6.782;2023-11-22T06:33:03;53.07;;;49.73;;
11431;SDS011;5772;50.940;6.782;2023-11-22T06:35:28;58.17;;;54.43;;
11431;SDS011;5772;50.940;6.782;2023-11-22T06:37:54;53.87;;;50.50;;
11431;SDS011;5772;50.940;6.782;2023-11-22T06:40:20;53.83;;;50.53;;
11431;SDS011;5772;50.940;6.782;2023-11-22T06:42:46;54.03;;;50.33;;
11431;SDS011;5772;50.940;6.782;2023-11-22T06:45:11;52.53;;;49.13;;
11431;SDS011;5772;50.940;6.782;2023-11-22T06:47:37;53.90;;;50.33;;
11431;SDS011;5772;50.940;6.782;2023-11-22T06:50:02;58.60;;;54.87;;
11431;SDS011;5772;50.940;6.782;2023-11-22T06:52:28;52.40;;;49.17;;
11431;SDS011;5772;50.940;6.782;2023-11-22T06:54:53;51.90;;;48.67;;
11431;SDS011;5772;50.940;6.782;2023-11-22T06:57:20;57.90;;;54.20;;
11431;SDS011;5772;50.940;6.782;2023-11-22T06:59:45;51.80;;;48.70;;
11431;SDS011;5772;50.940;6.782;2023-11-22T07:02:11;52.60;;;49.50;;
11431;SDS011;5772;50.940;6.782;2023-11-22T07:04:36;54.43;;;51.00;;
11431;SDS011;5772;50.940;6.782;2023-11-22T07:07:01;44.73;;;41.33;;
11431;SDS011;5772;50.940;6.782;2023-11-22T07:09:27;44.10;;;41.00;;
11431;SDS011;5772;50.940;6.782;2023-11-22T07:11:52;50.70;;;47.33;;
11431;SDS011;5772;50.940;6.782;2023-11-22T07:14:19;49.93;;;46.53;;
11431;SDS011;5772;50.940;6.782;2023-11-22T07:16:44;49.10;;;45.67;;
11431;SDS011;5772;50.940;6.782;2023-11-22T07:19:10;47.37;;;43.87;;
11431;SDS011;5772;50.940;6.782;2023-11-22T07:21:35;51.53;;;48.00;;
11431;SDS011;5772;50.940;6.782;2023-11-22T07:24:02;44.40;;;41.33;;
11431;SDS011;5772;50.940;6.782;2023-11-22T07:26:29;46.93;;;43.83;;
11431;SDS011;5772;50.940;6.782;2023-11-22T07:28:55;44.73;;;41.63;;
11431;SDS011;5772;50.940;6.782;2023-11-22T07:31:21;50.33;;;46.90;;
11431;SDS011;5772;50.940;6.782;2023-11-22T07:33:47;49.17;;;46.00;;
11431;SDS011;5772;50.940;6.782;2023-11-22T07:36:12;50.73;;;47.47;;
11431;SDS011;5772;50.940;6.782;2023-11-22T07:38:37;53.87;;;50.63;;
11431;SDS011;5772;50.940;6.782;2023-11-22T07:41:03;52.80;;;49.37;;
11431;SDS011;5772;50.940;6.782;2023-11-22T07:43:28;55.60;;;52.20;;
11431;SDS011;5772;50.940;6.782;2023-11-22T07:45:54;57.77;;;54.17;;
11431;SDS011;5772;50.940;6.782;2023-11-22T07:48:20;55.20;;;51.90;;
11431;SDS011;5772;50.940;6.782;2023-11-22T07:50:46;55.77;;;52.33;;
11431;SDS011;5772;50.940;6.782;2023-11-22T07:53:11;59.00;;;55.13;;
11431;SDS011;5772;50.940;6.782;2023-11-22T07:55:37;52.37;;;49.10;;
11431;SDS011;5772;50.940;6.782;2023-11-22T07:58:02;59.83;;;56.23;;
11431;SDS011;5772;50.940;6.782;2023-11-22T08:00:27;51.90;;;48.40;;
11431;SDS011;5772;50.940;6.782;2023-11-22T08:02:53;52.23;;;48.83;;
11431;SDS011;5772;50.940;6.782;2023-11-22T08:05:19;45.83;;;43.23;;
11431;SDS011;5772;50.940;6.782;2023-11-22T08:07:45;36.60;;;33.90;;
11431;SDS011;5772;50.940;6.782;2023-11-22T08:10:10;32.73;;;30.57;;
11431;SDS011;5772;50.940;6.782;2023-11-22T08:12:36;26.07;;;24.27;;
11431;SDS011;5772;50.940;6.782;2023-11-22T08:15:01;25.07;;;23.47;;
11431;SDS011;5772;50.940;6.782;2023-11-22T08:17:27;28.17;;;26.47;;
11431;SDS011;5772;50.940;6.782;2023-11-22T08:19:52;24.50;;;22.90;;
11431;SDS011;5772;50.940;6.782;2023-11-22T08:22:19;22.83;;;21.63;;
11431;SDS011;5772;50.940;6.782;2023-11-22T08:24:44;23.87;;;22.47;;
11431;SDS011;5772;50.940;6.782;2023-11-22T08:27:09;23.13;;;21.63;;
11431;SDS011;5772;50.940;6.782;2023-11-22T08:29:35;22.03;;;20.50;;
11431;SDS011;5772;50.940;6.782;2023-11-22T08:32:00;24.03;;;22.33;;
11431;SDS011;5772;50.940;6.782;2023-11-22T08:34:25;24.10;;;22.50;;
11431;SDS011;5772;50.940;6.782;2023-11-22T08:36:51;21.63;;;20.27;;
11431;SDS011;5772;50.940;6.782;2023-11-22T08:39:17;20.37;;;18.97;;
11431;SDS011;5772;50.940;6.782;2023-11-22T08:41:43;20.80;;;19.53;;
11431;SDS011;5772;50.940;6.782;2023-11-22T08:44:08;20.10;;;18.80;;
11431;SDS011;5772;50.940;6.782;2023-11-22T08:46:33;20.57;;;19.37;;
11431;SDS011;5772;50.940;6.782;2023-11-22T08:48:59;21.83;;;20.33;;
11431;SDS011;5772;50.940;6.782;2023-11-22T08:51:24;23.23;;;21.63;;
11431;SDS011;5772;50.940;6.782;2023-11-22T08:53:50;23.37;;;21.87;;
11431;SDS011;5772;50.940;6.782;2023-11-22T08:56:16;22.83;;;21.33;;
11431;SDS011;5772;50.940;6.782;2023-11-22T08:58:42;22.10;;;20.80;;
11431;SDS011;5772;50.940;6.782;2023-11-22T09:01:07;20.87;;;19.67;;
11431;SDS011;5772;50.940;6.782;2023-11-22T09:03:33;21.10;;;19.83;;
11431;SDS011;5772;50.940;6.782;2023-11-22T09:05:58;20.30;;;19.10;;
11431;SDS011;5772;50.940;6.782;2023-11-22T09:08:24;18.37;;;17.23;;
11431;SDS011;5772;50.940;6.782;2023-11-22T09:10:49;18.27;;;17.07;;
11431;SDS011;5772;50.940;6.782;2023-11-22T09:13:16;17.87;;;16.77;;
11431;SDS011;5772;50.940;6.782;2023-11-22T09:15:41;19.30;;;17.90;;
11431;SDS011;5772;50.940;6.782;2023-11-22T09:18:07;19.67;;;18.27;;
11431;SDS011;5772;50.940;6.782;2023-11-22T09:20:32;20.70;;;19.58;;
11431;SDS011;5772;50.940;6.782;2023-11-22T09:22:57;18.38;;;17.38;;
11431;SDS011;5772;50.940;6.782;2023-11-22T09:25:23;17.83;;;16.77;;
11431;SDS011;5772;50.940;6.782;2023-11-22T09:27:50;17.45;;;16.45;;
11431;SDS011;5772;50.940;6.782;2023-11-22T09:30:18;17.73;;;16.73;;
11431;SDS011;5772;50.940;6.782;2023-11-22T09:32:45;17.98;;;17.05;;
11431;SDS011;5772;50.940;6.782;2023-11-22T09:35:10;16.25;;;15.35;;
11431;SDS011;5772;50.940;6.782;2023-11-22T09:37:36;17.45;;;16.35;;
11431;SDS011;5772;50.940;6.782;2023-11-22T09:40:01;16.95;;;15.75;;
11431;SDS011;5772;50.940;6.782;2023-11-22T09:42:26;16.70;;;15.80;;
11431;SDS011;5772;50.940;6.782;2023-11-22T09:44:52;16.42;;;15.55;;
11431;SDS011;5772;50.940;6.782;2023-11-22T09:47:18;18.90;;;17.88;;
11431;SDS011;5772;50.940;6.782;2023-11-22T09:49:44;19.88;;;18.40;;
11431;SDS011;5772;50.940;6.782;2023-11-22T09:52:11;17.27;;;16.38;;
11431;SDS011;5772;50.940;6.782;2023-11-22T09:54:39;17.17;;;16.17;;
11431;SDS011;5772;50.940;6.782;2023-11-22T09:57:04;17.35;;;16.35;;
11431;SDS011;5772;50.940;6.782;2023-11-22T09:59:30;17.23;;;16.05;;
11431;SDS011;5772;50.940;6.782;2023-11-22T10:01:56;17.67;;;16.80;;
11431;SDS011;5772;50.940;6.782;2023-11-22T10:04:23;19.55;;;18.55;;
11431;SDS011;5772;50.940;6.782;2023-11-22T10:06:48;18.48;;;17.45;;
11431;SDS011;5772;50.940;6.782;2023-11-22T10:09:14;19.10;;;18.10;;
11431;SDS011;5772;50.940;6.782;2023-11-22T10:11:39;18.97;;;17.97;;
11431;SDS011;5772;50.940;6.782;2023-11-22T10:14:05;16.97;;;16.17;;
11431;SDS011;5772;50.940;6.782;2023-11-22T10:16:30;17.07;;;16.27;;
11431;SDS011;5772;50.940;6.782;2023-11-22T10:18:55;16.23;;;15.27;;
11431;SDS011;5772;50.940;6.782;2023-11-22T10:21:24;17.50;;;16.70;;
11431;SDS011;5772;50.940;6.782;2023-11-22T10:23:50;18.43;;;17.43;;
11431;SDS011;5772;50.940;6.782;2023-11-22T10:26:15;17.47;;;16.67;;
11431;SDS011;5772;50.940;6.782;2023-11-22T10:28:41;18.00;;;17.10;;
11431;SDS011;5772;50.940;6.782;2023-11-22T10:31:07;17.00;;;16.10;;
11431;SDS011;5772;50.940;6.782;2023-11-22T10:33:32;17.10;;;16.10;;
11431;SDS011;5772;50.940;6.782;2023-11-22T10:35:57;18.87;;;17.57;;
11431;SDS011;5772;50.940;6.782;2023-11-22T10:38:24;18.67;;;17.80;;
11431;SDS011;5772;50.940;6.782;2023-11-22T10:40:50;19.03;;;18.13;;
11431;SDS011;5772;50.940;6.782;2023-11-22T10:43:15;19.33;;;18.33;;
11431;SDS011;5772;50.940;6.782;2023-11-22T10:45:41;21.30;;;19.97;;
11431;SDS011;5772;50.940;6.782;2023-11-22T10:48:07;21.03;;;19.93;;
11431;SDS011;5772;50.940;6.782;2023-11-22T10:50:32;21.27;;;20.27;;
11431;SDS011;5772;50.940;6.782;2023-11-22T10:52:58;20.80;;;19.73;;
11431;SDS011;5772;50.940;6.782;2023-11-22T10:55:26;19.33;;;18.33;;
11431;SDS011;5772;50.940;6.782;2023-11-22T10:57:52;20.07;;;18.97;;
11431;SDS011;5772;50.940;6.782;2023-11-22T11:00:20;19.13;;;18.23;;
11431;SDS011;5772;50.940;6.782;2023-11-22T11:02:46;20.13;;;19.17;;
11431;SDS011;5772;50.940;6.782;2023-11-22T11:05:14;20.20;;;19.30;;
11431;SDS011;5772;50.940;6.782;2023-11-22T11:07:40;20.23;;;19.23;;
11431;SDS011;5772;50.940;6.782;2023-11-22T11:10:08;20.00;;;18.97;;
11431;SDS011;5772;50.940;6.782;2023-11-22T11:12:35;19.83;;;18.90;;
11431;SDS011;5772;50.940;6.782;2023-11-22T11:15:01;18.57;;;17.67;;
11431;SDS011;5772;50.940;6.782;2023-11-22T11:17:26;18.20;;;17.30;;
11431;SDS011;5772;50.940;6.782;2023-11-22T11:19:52;18.33;;;17.43;;
11431;SDS011;5772;50.940;6.782;2023-11-22T11:22:17;17.77;;;16.87;;
11431;SDS011;5772;50.940;6.782;2023-11-22T11:24:43;18.70;;;17.80;;
11431;SDS011;5772;50.940;6.782;2023-11-22T11:27:12;18.80;;;17.90;;
11431;SDS011;5772;50.940;6.782;2023-11-22T11:29:39;18.23;;;17.40;;
11431;SDS011;5772;50.940;6.782;2023-11-22T11:32:05;18.80;;;17.90;;
11431;SDS011;5772;50.940;6.782;2023-11-22T11:34:37;17.87;;;17.07;;
11431;SDS011;5772;50.940;6.782;2023-11-22T11:37:12;17.90;;;17.10;;
11431;SDS011;5772;50.940;6.782;2023-11-22T11:39:37;18.07;;;17.00;;
11431;SDS011;5772;50.940;6.782;2023-11-22T11:42:09;18.03;;;17.13;;
11431;SDS011;5772;50.940;6.782;2023-11-22T11:44:34;18.53;;;17.67;;
11431;SDS011;5772;50.940;6.782;2023-11-22T11:47:08;19.53;;;18.63;;
11431;SDS011;5772;50.940;6.782;2023-11-22T11:49:34;19.90;;;19.00;;
11431;SDS011;5772;50.940;6.782;2023-11-22T11:52:02;21.53;;;20.33;;
11431;SDS011;5772;50.940;6.782;2023-11-22T11:54:27;19.80;;;18.83;;
11431;SDS011;5772;50.940;6.782;2023-11-22T11:56:53;20.97;;;19.97;;
11431;SDS011;5772;50.940;6.782;2023-11-22T11:59:18;20.43;;;19.43;;
11431;SDS011;5772;50.940;6.782;2023-11-22T12:01:43;21.13;;;19.90;;
11431;SDS011;5772;50.940;6.782;2023-11-22T12:04:10;20.50;;;19.50;;
11431;SDS011;5772;50.940;6.782;2023-11-22T12:06:35;19.80;;;18.90;;
11431;SDS011;5772;50.940;6.782;2023-11-22T12:09:01;18.90;;;18.00;;
11431;SDS011;5772;50.940;6.782;2023-11-22T12:11:26;19.57;;;18.57;;
11431;SDS011;5772;50.940;6.782;2023-11-22T12:13:51;19.87;;;18.97;;
11431;SDS011;5772;50.940;6.782;2023-11-22T12:16:17;20.30;;;19.23;;
11431;SDS011;5772;50.940;6.782;2023-11-22T12:18:43;19.53;;;18.63;;
11431;SDS011;5772;50.940;6.782;2023-11-22T12:21:10;19.23;;;18.43;;
11431;SDS011;5772;50.940;6.782;2023-11-22T12:23:36;18.57;;;17.77;;
11431;SDS011;5772;50.940;6.782;2023-11-22T12:26:01;17.13;;;16.43;;
11431;SDS011;5772;50.940;6.782;2023-11-22T12:28:28;16.83;;;16.03;;
11431;SDS011;5772;50.940;6.782;2023-11-22T12:30:54;16.30;;;15.53;;
11431;SDS011;5772;50.940;6.782;2023-11-22T12:33:20;16.53;;;15.83;;
11431;SDS011;5772;50.940;6.782;2023-11-22T12:35:46;16.43;;;15.63;;
11431;SDS011;5772;50.940;6.782;2023-11-22T12:38:12;18.67;;;17.43;;
11431;SDS011;5772;50.940;6.782;2023-11-22T12:40:42;19.80;;;18.70;;
11431;SDS011;5772;50.940;6.782;2023-11-22T12:43:08;17.77;;;17.07;;
11431;SDS011;5772;50.940;6.782;2023-11-22T12:45:34;17.13;;;16.33;;
11431;SDS011;5772;50.940;6.782;2023-11-22T12:47:59;17.23;;;16.43;;
11431;SDS011;5772;50.940;6.782;2023-11-22T12:50:32;17.17;;;16.37;;
11431;SDS011;5772;50.940;6.782;2023-11-22T12:52:58;18.57;;;17.67;;
11431;SDS011;5772;50.940;6.782;2023-11-22T12:55:24;16.53;;;15.73;;
11431;SDS011;5772;50.940;6.782;2023-11-22T12:57:55;17.07;;;16.23;;
11431;SDS011;5772;50.940;6.782;2023-11-22T13:00:21;16.33;;;15.33;;
11431;SDS011;5772;50.940;6.782;2023-11-22T13:02:47;16.17;;;15.57;;
11431;SDS011;5772;50.940;6.782;2023-11-22T13:05:12;16.37;;;15.67;;
11431;SDS011;5772;50.940;6.782;2023-11-22T13:07:38;16.23;;;15.53;;
11431;SDS011;5772;50.940;6.782;2023-11-22T13:10:03;16.90;;;16.00;;
11431;SDS011;5772;50.940;6.782;2023-11-22T13:12:31;17.03;;;16.23;;
11431;SDS011;5772;50.940;6.782;2023-11-22T13:14:56;18.60;;;17.70;;
11431;SDS011;5772;50.940;6.782;2023-11-22T13:17:21;21.33;;;20.13;;
11431;SDS011;5772;50.940;6.782;2023-11-22T13:19:47;20.23;;;19.13;;
11431;SDS011;5772;50.940;6.782;2023-11-22T13:22:12;19.77;;;18.60;;
11431;SDS011;5772;50.940;6.782;2023-11-22T13:24:37;21.37;;;20.07;;
11431;SDS011;5772;50.940;6.782;2023-11-22T13:27:03;20.13;;;19.03;;
11431;SDS011;5772;50.940;6.782;2023-11-22T13:29:29;19.43;;;18.23;;
11431;SDS011;5772;50.940;6.782;2023-11-22T13:31:55;20.47;;;19.17;;
11431;SDS011;5772;50.940;6.782;2023-11-22T13:34:20;20.83;;;19.53;;
11431;SDS011;5772;50.940;6.782;2023-11-22T13:36:45;20.00;;;19.00;;
11431;SDS011;5772;50.940;6.782;2023-11-22T13:39:11;19.80;;;18.80;;
11431;SDS011;5772;50.940;6.782;2023-11-22T13:41:36;19.53;;;18.43;;
11431;SDS011;5772;50.940;6.782;2023-11-22T13:44:01;19.73;;;18.57;;
11431;SDS011;5772;50.940;6.782;2023-11-22T13:46:28;19.37;;;18.37;;
11431;SDS011;5772;50.940;6.782;2023-11-22T13:48:53;19.83;;;18.53;;
11431;SDS011;5772;50.940;6.782;2023-11-22T13:51:19;20.07;;;18.77;;
11431;SDS011;5772;50.940;6.782;2023-11-22T13:53:45;19.73;;;18.40;;
11431;SDS011;5772;50.940;6.782;2023-11-22T13:56:10;20.03;;;18.60;;
11431;SDS011;5772;50.940;6.782;2023-11-22T13:58:36;20.80;;;19.47;;
11431;SDS011;5772;50.940;6.782;2023-11-22T14:01:01;20.63;;;19.37;;
11431;SDS011;5772;50.940;6.782;2023-11-22T14:03:28;19.00;;;18.10;;
11431;SDS011;5772;50.940;6.782;2023-11-22T14:05:53;21.97;;;20.43;;
11431;SDS011;5772;50.940;6.782;2023-11-22T14:08:19;20.83;;;19.60;;
11431;SDS011;5772;50.940;6.782;2023-11-22T14:10:44;19.60;;;18.27;;
11431;SDS011;5772;50.940;6.782;2023-11-22T14:13:09;20.77;;;19.73;;
11431;SDS011;5772;50.940;6.782;2023-11-22T14:15:35;21.67;;;20.53;;
11431;SDS011;5772;50.940;6.782;2023-11-22T14:18:00;22.67;;;21.37;;
11431;SDS011;5772;50.940;6.782;2023-11-22T14:20:27;21.63;;;20.43;;
11431;SDS011;5772;50.940;6.782;2023-11-22T14:22:52;20.30;;;19.30;;
11431;SDS011;5772;50.940;6.782;2023-11-22T14:25:17;21.77;;;20.67;;